sensor_id;sensor_type;location;lat;lon;timestamp;P1;durP1;ratioP1;P2;durP2;ratioP2
13185;SDS011;6658;53.080;7.428;2022-08-19T00:00:07;6.97;;;6.20;;
13185;SDS011;6658;53.080;7.428;2022-08-19T00:02:35;6.93;;;6.23;;
13185;SDS011;6658;53.080;7.428;2022-08-19T00:05:01;5.67;;;5.03;;
13185;SDS011;6658;53.080;7.428;2022-08-19T00:07:28;5.80;;;5.30;;
13185;SDS011;6658;53.080;7.428;2022-08-19T00:09:54;6.37;;;5.73;;
13185;SDS011;6658;53.080;7.428;2022-08-19T00:12:19;6.77;;;6.10;;
13185;SDS011;6658;53.080;7.428;2022-08-19T00:14:45;6.53;;;5.10;;
13185;SDS011;6658;53.080;7.428;2022-08-19T00:17:11;7.03;;;6.03;;
13185;SDS011;6658;53.080;7.428;2022-08-19T00:19:38;6.77;;;6.07;;
13185;SDS011;6658;53.080;7.428;2022-08-19T00:22:04;6.27;;;5.70;;
13185;SDS011;6658;53.080;7.428;2022-08-19T00:24:30;6.63;;;6.03;;
13185;SDS011;6658;53.080;7.428;2022-08-19T00:26:56;6.90;;;6.20;;
13185;SDS011;6658;53.080;7.428;2022-08-19T00:29:23;6.37;;;5.77;;
13185;SDS011;6658;53.080;7.428;2022-08-19T00:31:50;7.60;;;6.27;;
13185;SDS011;6658;53.080;7.428;2022-08-19T00:34:19;8.20;;;6.80;;
13185;SDS011;6658;53.080;7.428;2022-08-19T00:36:46;6.80;;;6.10;;
13185;SDS011;6658;53.080;7.428;2022-08-19T00:39:12;7.97;;;6.73;;
13185;SDS011;6658;53.080;7.428;2022-08-19T00:41:40;7.57;;;6.83;;
13185;SDS011;6658;53.080;7.428;2022-08-19T00:44:08;7.67;;;6.90;;
13185;SDS011;6658;53.080;7.428;2022-08-19T00:46:40;8.00;;;7.20;;
13185;SDS011;6658;53.080;7.428;2022-08-19T00:49:42;9.23;;;6.53;;
13185;SDS011;6658;53.080;7.428;2022-08-19T00:52:17;7.27;;;6.00;;
13185;SDS011;6658;53.080;7.428;2022-08-19T00:54:56;7.77;;;6.97;;
13185;SDS011;6658;53.080;7.428;2022-08-19T00:57:33;6.73;;;6.03;;
13185;SDS011;6658;53.080;7.428;2022-08-19T01:00:05;7.27;;;6.53;;
13185;SDS011;6658;53.080;7.428;2022-08-19T01:02:36;6.80;;;6.10;;
13185;SDS011;6658;53.080;7.428;2022-08-19T01:05:05;7.07;;;6.37;;
13185;SDS011;6658;53.080;7.428;2022-08-19T01:07:34;8.60;;;7.00;;
13185;SDS011;6658;53.080;7.428;2022-08-19T01:10:03;6.97;;;6.00;;
13185;SDS011;6658;53.080;7.428;2022-08-19T01:12:30;7.03;;;6.33;;
13185;SDS011;6658;53.080;7.428;2022-08-19T01:14:56;7.07;;;6.37;;
13185;SDS011;6658;53.080;7.428;2022-08-19T01:17:23;6.90;;;6.20;;
13185;SDS011;6658;53.080;7.428;2022-08-19T01:19:49;7.70;;;6.90;;
13185;SDS011;6658;53.080;7.428;2022-08-19T01:24:53;7.60;;;6.80;;
13185;SDS011;6658;53.080;7.428;2022-08-19T01:27:18;9.30;;;6.60;;
13185;SDS011;6658;53.080;7.428;2022-08-19T01:29:47;9.40;;;6.53;;
13185;SDS011;6658;53.080;7.428;2022-08-19T01:32:13;7.10;;;6.40;;
13185;SDS011;6658;53.080;7.428;2022-08-19T01:34:41;6.27;;;5.67;;
13185;SDS011;6658;53.080;7.428;2022-08-19T01:37:09;8.43;;;6.70;;
13185;SDS011;6658;53.080;7.428;2022-08-19T01:39:36;7.13;;;6.30;;
13185;SDS011;6658;53.080;7.428;2022-08-19T01:42:04;7.80;;;6.80;;
13185;SDS011;6658;53.080;7.428;2022-08-19T01:44:32;7.30;;;6.50;;
13185;SDS011;6658;53.080;7.428;2022-08-19T01:46:58;8.27;;;6.70;;
13185;SDS011;6658;53.080;7.428;2022-08-19T01:49:24;7.50;;;6.67;;
13185;SDS011;6658;53.080;7.428;2022-08-19T01:51:51;7.73;;;6.57;;
13185;SDS011;6658;53.080;7.428;2022-08-19T01:54:19;8.93;;;6.73;;
13185;SDS011;6658;53.080;7.428;2022-08-19T01:56:46;10.10;;;6.80;;
13185;SDS011;6658;53.080;7.428;2022-08-19T01:59:14;9.33;;;7.30;;
13185;SDS011;6658;53.080;7.428;2022-08-19T02:01:42;19.77;;;14.83;;
13185;SDS011;6658;53.080;7.428;2022-08-19T02:04:08;10.10;;;7.63;;
13185;SDS011;6658;53.080;7.428;2022-08-19T02:06:34;10.67;;;7.63;;
13185;SDS011;6658;53.080;7.428;2022-08-19T02:09:00;11.00;;;7.27;;
13185;SDS011;6658;53.080;7.428;2022-08-19T02:11:29;10.37;;;8.03;;
13185;SDS011;6658;53.080;7.428;2022-08-19T02:13:59;11.57;;;8.73;;
13185;SDS011;6658;53.080;7.428;2022-08-19T02:16:27;11.70;;;9.13;;
13185;SDS011;6658;53.080;7.428;2022-08-19T02:18:53;12.83;;;8.67;;
13185;SDS011;6658;53.080;7.428;2022-08-19T02:21:20;15.90;;;9.33;;
13185;SDS011;6658;53.080;7.428;2022-08-19T02:23:47;23.97;;;10.27;;
13185;SDS011;6658;53.080;7.428;2022-08-19T02:26:14;19.60;;;9.60;;
13185;SDS011;6658;53.080;7.428;2022-08-19T02:28:40;21.50;;;10.10;;
13185;SDS011;6658;53.080;7.428;2022-08-19T02:31:15;25.20;;;9.70;;
13185;SDS011;6658;53.080;7.428;2022-08-19T02:33:43;22.90;;;9.87;;
13185;SDS011;6658;53.080;7.428;2022-08-19T02:36:10;21.00;;;10.40;;
13185;SDS011;6658;53.080;7.428;2022-08-19T02:38:37;17.20;;;9.47;;
13185;SDS011;6658;53.080;7.428;2022-08-19T02:41:04;14.93;;;8.57;;
13185;SDS011;6658;53.080;7.428;2022-08-19T02:43:33;17.47;;;9.63;;
13185;SDS011;6658;53.080;7.428;2022-08-19T02:46:23;17.63;;;8.77;;
13185;SDS011;6658;53.080;7.428;2022-08-19T02:48:52;13.10;;;8.40;;
13185;SDS011;6658;53.080;7.428;2022-08-19T02:51:21;15.77;;;8.87;;
13185;SDS011;6658;53.080;7.428;2022-08-19T02:53:48;15.30;;;9.30;;
13185;SDS011;6658;53.080;7.428;2022-08-19T02:56:14;18.50;;;9.23;;
13185;SDS011;6658;53.080;7.428;2022-08-19T02:58:40;14.70;;;9.27;;
13185;SDS011;6658;53.080;7.428;2022-08-19T03:01:06;17.17;;;9.83;;
13185;SDS011;6658;53.080;7.428;2022-08-19T03:03:32;16.63;;;9.73;;
13185;SDS011;6658;53.080;7.428;2022-08-19T03:08:38;17.63;;;10.53;;
13185;SDS011;6658;53.080;7.428;2022-08-19T03:11:05;19.40;;;10.03;;
13185;SDS011;6658;53.080;7.428;2022-08-19T03:13:36;20.23;;;10.40;;
13185;SDS011;6658;53.080;7.428;2022-08-19T03:16:04;16.93;;;10.10;;
13185;SDS011;6658;53.080;7.428;2022-08-19T03:18:30;16.00;;;9.60;;
13185;SDS011;6658;53.080;7.428;2022-08-19T03:20:56;13.70;;;8.80;;
13185;SDS011;6658;53.080;7.428;2022-08-19T03:23:22;14.47;;;8.87;;
13185;SDS011;6658;53.080;7.428;2022-08-19T03:25:49;14.20;;;8.90;;
13185;SDS011;6658;53.080;7.428;2022-08-19T03:28:16;13.03;;;8.13;;
13185;SDS011;6658;53.080;7.428;2022-08-19T03:30:42;14.87;;;9.30;;
13185;SDS011;6658;53.080;7.428;2022-08-19T03:33:21;15.03;;;9.03;;
13185;SDS011;6658;53.080;7.428;2022-08-19T03:38:39;14.80;;;9.43;;
13185;SDS011;6658;53.080;7.428;2022-08-19T03:41:18;15.53;;;9.63;;
13185;SDS011;6658;53.080;7.428;2022-08-19T03:43:46;16.50;;;9.23;;
13185;SDS011;6658;53.080;7.428;2022-08-19T03:46:14;14.77;;;9.03;;
13185;SDS011;6658;53.080;7.428;2022-08-19T03:48:42;15.23;;;8.73;;
13185;SDS011;6658;53.080;7.428;2022-08-19T03:51:15;14.70;;;9.57;;
13185;SDS011;6658;53.080;7.428;2022-08-19T03:53:44;14.83;;;9.93;;
13185;SDS011;6658;53.080;7.428;2022-08-19T03:56:10;15.63;;;9.70;;
13185;SDS011;6658;53.080;7.428;2022-08-19T03:58:38;16.20;;;10.10;;
13185;SDS011;6658;53.080;7.428;2022-08-19T04:01:08;16.90;;;10.20;;
13185;SDS011;6658;53.080;7.428;2022-08-19T04:03:36;19.33;;;10.30;;
13185;SDS011;6658;53.080;7.428;2022-08-19T04:06:10;17.23;;;10.40;;
13185;SDS011;6658;53.080;7.428;2022-08-19T04:08:36;15.90;;;9.40;;
13185;SDS011;6658;53.080;7.428;2022-08-19T04:11:05;15.77;;;9.97;;
13185;SDS011;6658;53.080;7.428;2022-08-19T04:13:35;20.10;;;10.07;;
13185;SDS011;6658;53.080;7.428;2022-08-19T04:16:00;16.17;;;10.37;;
13185;SDS011;6658;53.080;7.428;2022-08-19T04:18:26;18.27;;;10.37;;
13185;SDS011;6658;53.080;7.428;2022-08-19T04:20:54;16.13;;;10.00;;
13185;SDS011;6658;53.080;7.428;2022-08-19T04:23:20;20.33;;;10.90;;
13185;SDS011;6658;53.080;7.428;2022-08-19T04:25:46;16.33;;;10.53;;
13185;SDS011;6658;53.080;7.428;2022-08-19T04:28:12;16.93;;;10.33;;
13185;SDS011;6658;53.080;7.428;2022-08-19T04:30:41;18.53;;;10.53;;
13185;SDS011;6658;53.080;7.428;2022-08-19T04:33:12;15.07;;;9.70;;
13185;SDS011;6658;53.080;7.428;2022-08-19T04:35:41;16.07;;;10.20;;
13185;SDS011;6658;53.080;7.428;2022-08-19T04:38:09;17.80;;;10.17;;
13185;SDS011;6658;53.080;7.428;2022-08-19T04:40:39;16.77;;;10.87;;
13185;SDS011;6658;53.080;7.428;2022-08-19T04:43:24;15.33;;;10.07;;
13185;SDS011;6658;53.080;7.428;2022-08-19T04:45:51;15.60;;;10.07;;
13185;SDS011;6658;53.080;7.428;2022-08-19T04:48:17;15.47;;;9.83;;
13185;SDS011;6658;53.080;7.428;2022-08-19T04:50:47;13.70;;;8.87;;
13185;SDS011;6658;53.080;7.428;2022-08-19T04:53:13;14.50;;;9.63;;
13185;SDS011;6658;53.080;7.428;2022-08-19T04:55:40;16.17;;;9.27;;
13185;SDS011;6658;53.080;7.428;2022-08-19T04:58:06;14.17;;;9.20;;
13185;SDS011;6658;53.080;7.428;2022-08-19T05:00:32;15.37;;;9.27;;
13185;SDS011;6658;53.080;7.428;2022-08-19T05:02:58;13.60;;;9.80;;
13185;SDS011;6658;53.080;7.428;2022-08-19T05:05:23;12.13;;;8.77;;
13185;SDS011;6658;53.080;7.428;2022-08-19T05:07:49;13.67;;;9.43;;
13185;SDS011;6658;53.080;7.428;2022-08-19T05:10:15;12.23;;;8.77;;
13185;SDS011;6658;53.080;7.428;2022-08-19T05:12:41;12.87;;;8.97;;
13185;SDS011;6658;53.080;7.428;2022-08-19T05:15:07;14.67;;;9.43;;
13185;SDS011;6658;53.080;7.428;2022-08-19T05:17:36;13.53;;;9.43;;
13185;SDS011;6658;53.080;7.428;2022-08-19T05:20:03;14.60;;;9.97;;
13185;SDS011;6658;53.080;7.428;2022-08-19T05:22:48;13.43;;;9.53;;
13185;SDS011;6658;53.080;7.428;2022-08-19T05:25:16;12.13;;;9.33;;
13185;SDS011;6658;53.080;7.428;2022-08-19T05:27:44;16.03;;;10.03;;
13185;SDS011;6658;53.080;7.428;2022-08-19T05:30:10;12.03;;;8.67;;
13185;SDS011;6658;53.080;7.428;2022-08-19T05:32:37;12.60;;;9.87;;
13185;SDS011;6658;53.080;7.428;2022-08-19T05:35:04;12.67;;;8.93;;
13185;SDS011;6658;53.080;7.428;2022-08-19T05:37:30;10.40;;;8.03;;
13185;SDS011;6658;53.080;7.428;2022-08-19T05:39:56;10.00;;;8.57;;
13185;SDS011;6658;53.080;7.428;2022-08-19T05:42:22;9.97;;;8.17;;
13185;SDS011;6658;53.080;7.428;2022-08-19T05:44:48;10.53;;;8.33;;
13185;SDS011;6658;53.080;7.428;2022-08-19T05:47:14;10.63;;;9.07;;
13185;SDS011;6658;53.080;7.428;2022-08-19T05:49:40;10.00;;;7.93;;
13185;SDS011;6658;53.080;7.428;2022-08-19T05:52:08;9.03;;;7.87;;
13185;SDS011;6658;53.080;7.428;2022-08-19T05:54:37;9.97;;;7.53;;
13185;SDS011;6658;53.080;7.428;2022-08-19T05:57:06;10.70;;;8.10;;
13185;SDS011;6658;53.080;7.428;2022-08-19T05:59:32;8.77;;;7.90;;
13185;SDS011;6658;53.080;7.428;2022-08-19T06:02:00;8.40;;;7.10;;
13185;SDS011;6658;53.080;7.428;2022-08-19T06:04:26;7.90;;;6.87;;
13185;SDS011;6658;53.080;7.428;2022-08-19T06:06:52;7.80;;;6.73;;
13185;SDS011;6658;53.080;7.428;2022-08-19T06:09:18;8.43;;;7.63;;
13185;SDS011;6658;53.080;7.428;2022-08-19T06:11:47;9.40;;;8.57;;
13185;SDS011;6658;53.080;7.428;2022-08-19T06:14:21;10.47;;;9.47;;
13185;SDS011;6658;53.080;7.428;2022-08-19T06:16:51;10.73;;;9.73;;
13185;SDS011;6658;53.080;7.428;2022-08-19T06:19:18;11.00;;;9.97;;
13185;SDS011;6658;53.080;7.428;2022-08-19T06:21:46;10.30;;;9.40;;
13185;SDS011;6658;53.080;7.428;2022-08-19T06:24:14;8.93;;;8.13;;
13185;SDS011;6658;53.080;7.428;2022-08-19T06:26:42;8.67;;;7.77;;
13185;SDS011;6658;53.080;7.428;2022-08-19T06:29:10;9.97;;;8.67;;
13185;SDS011;6658;53.080;7.428;2022-08-19T06:31:40;9.77;;;8.73;;
13185;SDS011;6658;53.080;7.428;2022-08-19T06:34:06;8.77;;;7.97;;
13185;SDS011;6658;53.080;7.428;2022-08-19T06:36:34;9.80;;;8.23;;
13185;SDS011;6658;53.080;7.428;2022-08-19T06:39:06;8.83;;;7.90;;
13185;SDS011;6658;53.080;7.428;2022-08-19T06:41:36;10.90;;;8.33;;
13185;SDS011;6658;53.080;7.428;2022-08-19T06:44:04;8.30;;;7.50;;
13185;SDS011;6658;53.080;7.428;2022-08-19T06:46:31;7.43;;;6.73;;
13185;SDS011;6658;53.080;7.428;2022-08-19T06:48:57;8.33;;;7.47;;
13185;SDS011;6658;53.080;7.428;2022-08-19T06:51:23;10.80;;;8.00;;
13185;SDS011;6658;53.080;7.428;2022-08-19T06:53:50;11.63;;;9.57;;
13185;SDS011;6658;53.080;7.428;2022-08-19T06:56:19;9.10;;;8.20;;
13185;SDS011;6658;53.080;7.428;2022-08-19T06:58:47;8.93;;;8.13;;
13185;SDS011;6658;53.080;7.428;2022-08-19T07:01:16;8.83;;;7.93;;
13185;SDS011;6658;53.080;7.428;2022-08-19T07:03:42;8.73;;;7.03;;
13185;SDS011;6658;53.080;7.428;2022-08-19T07:06:09;7.57;;;6.97;;
13185;SDS011;6658;53.080;7.428;2022-08-19T07:08:40;8.10;;;7.40;;
13185;SDS011;6658;53.080;7.428;2022-08-19T07:11:08;7.60;;;7.00;;
13185;SDS011;6658;53.080;7.428;2022-08-19T07:13:35;7.67;;;6.33;;
13185;SDS011;6658;53.080;7.428;2022-08-19T07:16:05;13.13;;;6.30;;
13185;SDS011;6658;53.080;7.428;2022-08-19T07:18:32;8.97;;;8.07;;
13185;SDS011;6658;53.080;7.428;2022-08-19T07:21:05;8.00;;;6.67;;
13185;SDS011;6658;53.080;7.428;2022-08-19T07:23:32;7.43;;;6.73;;
13185;SDS011;6658;53.080;7.428;2022-08-19T07:26:03;6.93;;;6.33;;
13185;SDS011;6658;53.080;7.428;2022-08-19T07:28:40;6.30;;;5.47;;
13185;SDS011;6658;53.080;7.428;2022-08-19T07:31:09;6.67;;;6.07;;
13185;SDS011;6658;53.080;7.428;2022-08-19T07:33:37;5.53;;;5.03;;
13185;SDS011;6658;53.080;7.428;2022-08-19T07:36:04;5.33;;;4.93;;
13185;SDS011;6658;53.080;7.428;2022-08-19T07:38:30;5.53;;;5.03;;
13185;SDS011;6658;53.080;7.428;2022-08-19T07:40:57;6.13;;;5.53;;
13185;SDS011;6658;53.080;7.428;2022-08-19T07:43:22;6.00;;;5.50;;
13185;SDS011;6658;53.080;7.428;2022-08-19T07:45:50;5.67;;;5.17;;
13185;SDS011;6658;53.080;7.428;2022-08-19T07:48:18;5.60;;;5.13;;
13185;SDS011;6658;53.080;7.428;2022-08-19T07:50:44;5.20;;;4.80;;
13185;SDS011;6658;53.080;7.428;2022-08-19T07:53:10;5.00;;;4.60;;
13185;SDS011;6658;53.080;7.428;2022-08-19T07:55:37;5.60;;;5.10;;
13185;SDS011;6658;53.080;7.428;2022-08-19T07:58:02;5.93;;;5.43;;
13185;SDS011;6658;53.080;7.428;2022-08-19T08:00:29;5.33;;;4.80;;
13185;SDS011;6658;53.080;7.428;2022-08-19T08:02:55;5.63;;;5.03;;
13185;SDS011;6658;53.080;7.428;2022-08-19T08:05:22;5.37;;;4.97;;
13185;SDS011;6658;53.080;7.428;2022-08-19T08:08:06;5.77;;;5.30;;
13185;SDS011;6658;53.080;7.428;2022-08-19T08:10:50;5.73;;;5.23;;
13185;SDS011;6658;53.080;7.428;2022-08-19T08:13:16;5.70;;;5.27;;
13185;SDS011;6658;53.080;7.428;2022-08-19T08:15:41;5.10;;;4.70;;
13185;SDS011;6658;53.080;7.428;2022-08-19T08:18:10;5.53;;;5.03;;
13185;SDS011;6658;53.080;7.428;2022-08-19T08:20:36;5.67;;;5.17;;
13185;SDS011;6658;53.080;7.428;2022-08-19T08:23:02;5.07;;;4.60;;
13185;SDS011;6658;53.080;7.428;2022-08-19T08:25:46;5.90;;;5.20;;
13185;SDS011;6658;53.080;7.428;2022-08-19T08:28:13;5.00;;;4.60;;
13185;SDS011;6658;53.080;7.428;2022-08-19T08:30:40;5.10;;;4.70;;
13185;SDS011;6658;53.080;7.428;2022-08-19T08:33:08;5.50;;;5.10;;
13185;SDS011;6658;53.080;7.428;2022-08-19T08:35:35;5.03;;;4.60;;
13185;SDS011;6658;53.080;7.428;2022-08-19T08:38:01;4.90;;;4.50;;
13185;SDS011;6658;53.080;7.428;2022-08-19T08:40:30;5.20;;;4.70;;
13185;SDS011;6658;53.080;7.428;2022-08-19T08:45:27;5.47;;;4.97;;
13185;SDS011;6658;53.080;7.428;2022-08-19T08:47:55;5.03;;;4.30;;
13185;SDS011;6658;53.080;7.428;2022-08-19T08:50:35;4.80;;;4.40;;
13185;SDS011;6658;53.080;7.428;2022-08-19T08:53:07;5.47;;;4.97;;
13185;SDS011;6658;53.080;7.428;2022-08-19T08:55:42;5.37;;;4.87;;
13185;SDS011;6658;53.080;7.428;2022-08-19T08:58:12;5.67;;;5.17;;
13185;SDS011;6658;53.080;7.428;2022-08-19T09:00:43;4.50;;;4.10;;
13185;SDS011;6658;53.080;7.428;2022-08-19T09:03:21;5.00;;;4.57;;
13185;SDS011;6658;53.080;7.428;2022-08-19T09:08:23;4.20;;;3.80;;
13185;SDS011;6658;53.080;7.428;2022-08-19T09:11:15;4.53;;;4.13;;
13185;SDS011;6658;53.080;7.428;2022-08-19T09:16:27;3.78;;;3.47;;
13185;SDS011;6658;53.080;7.428;2022-08-19T09:19:05;3.95;;;3.60;;
13185;SDS011;6658;53.080;7.428;2022-08-19T09:21:32;3.42;;;3.13;;
13185;SDS011;6658;53.080;7.428;2022-08-19T09:24:00;3.60;;;3.30;;
13185;SDS011;6658;53.080;7.428;2022-08-19T09:26:30;3.35;;;2.88;;
13185;SDS011;6658;53.080;7.428;2022-08-19T09:28:57;3.22;;;2.92;;
13185;SDS011;6658;53.080;7.428;2022-08-19T09:31:25;4.43;;;4.05;;
13185;SDS011;6658;53.080;7.428;2022-08-19T09:33:52;3.50;;;3.20;;
13185;SDS011;6658;53.080;7.428;2022-08-19T09:36:22;5.78;;;3.85;;
13185;SDS011;6658;53.080;7.428;2022-08-19T09:38:49;3.90;;;2.72;;
13185;SDS011;6658;53.080;7.428;2022-08-19T09:41:20;3.63;;;2.65;;
13185;SDS011;6658;53.080;7.428;2022-08-19T09:43:48;4.35;;;4.05;;
13185;SDS011;6658;53.080;7.428;2022-08-19T09:46:19;3.80;;;3.50;;
13185;SDS011;6658;53.080;7.428;2022-08-19T09:48:48;3.70;;;3.40;;
13185;SDS011;6658;53.080;7.428;2022-08-19T09:51:19;4.53;;;4.20;;
13185;SDS011;6658;53.080;7.428;2022-08-19T09:53:47;4.55;;;3.80;;
13185;SDS011;6658;53.080;7.428;2022-08-19T09:56:15;3.58;;;3.28;;
13185;SDS011;6658;53.080;7.428;2022-08-19T09:58:43;3.67;;;3.45;;
13185;SDS011;6658;53.080;7.428;2022-08-19T10:01:09;4.25;;;3.85;;
13185;SDS011;6658;53.080;7.428;2022-08-19T10:03:41;3.55;;;3.28;;
13185;SDS011;6658;53.080;7.428;2022-08-19T10:06:07;3.50;;;3.20;;
13185;SDS011;6658;53.080;7.428;2022-08-19T10:08:35;3.67;;;3.38;;
13185;SDS011;6658;53.080;7.428;2022-08-19T10:11:02;3.63;;;3.33;;
13185;SDS011;6658;53.080;7.428;2022-08-19T10:13:29;3.63;;;3.25;;
13185;SDS011;6658;53.080;7.428;2022-08-19T10:16:02;4.32;;;4.03;;
13185;SDS011;6658;53.080;7.428;2022-08-19T10:18:31;3.85;;;3.53;;
13185;SDS011;6658;53.080;7.428;2022-08-19T10:21:12;3.15;;;2.92;;
13185;SDS011;6658;53.080;7.428;2022-08-19T10:23:40;3.50;;;3.20;;
13185;SDS011;6658;53.080;7.428;2022-08-19T10:26:16;2.90;;;2.70;;
13185;SDS011;6658;53.080;7.428;2022-08-19T10:28:43;2.90;;;2.70;;
13185;SDS011;6658;53.080;7.428;2022-08-19T10:31:12;3.13;;;2.90;;
13185;SDS011;6658;53.080;7.428;2022-08-19T10:33:40;3.63;;;3.38;;
13185;SDS011;6658;53.080;7.428;2022-08-19T10:36:08;3.22;;;3.00;;
13185;SDS011;6658;53.080;7.428;2022-08-19T10:38:42;2.88;;;2.63;;
13185;SDS011;6658;53.080;7.428;2022-08-19T10:43:41;2.60;;;2.40;;
13185;SDS011;6658;53.080;7.428;2022-08-19T10:46:08;3.28;;;2.65;;
13185;SDS011;6658;53.080;7.428;2022-08-19T10:48:36;2.90;;;2.70;;
13185;SDS011;6658;53.080;7.428;2022-08-19T10:51:02;2.67;;;2.47;;
13185;SDS011;6658;53.080;7.428;2022-08-19T10:53:47;3.75;;;3.38;;
13185;SDS011;6658;53.080;7.428;2022-08-19T10:56:13;3.42;;;3.10;;
13185;SDS011;6658;53.080;7.428;2022-08-19T10:58:57;3.22;;;3.03;;
13185;SDS011;6658;53.080;7.428;2022-08-19T11:01:24;3.00;;;2.70;;
13185;SDS011;6658;53.080;7.428;2022-08-19T11:03:51;4.22;;;3.00;;
13185;SDS011;6658;53.080;7.428;2022-08-19T11:06:17;3.83;;;3.08;;
13185;SDS011;6658;53.080;7.428;2022-08-19T11:08:44;3.03;;;2.83;;
13185;SDS011;6658;53.080;7.428;2022-08-19T11:11:10;3.28;;;2.85;;
13185;SDS011;6658;53.080;7.428;2022-08-19T11:13:38;2.90;;;2.50;;
13185;SDS011;6658;53.080;7.428;2022-08-19T11:16:06;2.70;;;2.50;;
13185;SDS011;6658;53.080;7.428;2022-08-19T11:18:34;3.08;;;2.78;;
13185;SDS011;6658;53.080;7.428;2022-08-19T11:21:06;2.60;;;2.40;;
13185;SDS011;6658;53.080;7.428;2022-08-19T11:23:37;2.90;;;2.65;;
13185;SDS011;6658;53.080;7.428;2022-08-19T11:26:03;2.63;;;2.35;;
13185;SDS011;6658;53.080;7.428;2022-08-19T11:28:29;4.22;;;3.55;;
13185;SDS011;6658;53.080;7.428;2022-08-19T11:30:55;2.13;;;2.03;;
13185;SDS011;6658;53.080;7.428;2022-08-19T11:33:20;2.20;;;1.98;;
13185;SDS011;6658;53.080;7.428;2022-08-19T11:35:46;4.53;;;2.70;;
13185;SDS011;6658;53.080;7.428;2022-08-19T11:38:12;2.13;;;2.03;;
13185;SDS011;6658;53.080;7.428;2022-08-19T11:40:39;2.25;;;2.05;;
13185;SDS011;6658;53.080;7.428;2022-08-19T11:43:07;2.22;;;2.08;;
13185;SDS011;6658;53.080;7.428;2022-08-19T11:45:33;2.40;;;2.20;;
13185;SDS011;6658;53.080;7.428;2022-08-19T11:47:59;2.13;;;2.00;;
13185;SDS011;6658;53.080;7.428;2022-08-19T11:50:24;2.85;;;2.55;;
13185;SDS011;6658;53.080;7.428;2022-08-19T11:52:53;2.58;;;2.35;;
13185;SDS011;6658;53.080;7.428;2022-08-19T11:55:20;3.22;;;2.20;;
13185;SDS011;6658;53.080;7.428;2022-08-19T11:57:46;2.15;;;1.90;;
13185;SDS011;6658;53.080;7.428;2022-08-19T12:00:12;2.10;;;1.95;;
13185;SDS011;6658;53.080;7.428;2022-08-19T12:02:39;2.67;;;2.08;;
13185;SDS011;6658;53.080;7.428;2022-08-19T12:05:05;2.50;;;2.30;;
13185;SDS011;6658;53.080;7.428;2022-08-19T12:07:31;1.70;;;1.60;;
13185;SDS011;6658;53.080;7.428;2022-08-19T12:09:58;1.70;;;1.55;;
13185;SDS011;6658;53.080;7.428;2022-08-19T12:12:24;1.63;;;1.52;;
13185;SDS011;6658;53.080;7.428;2022-08-19T12:14:50;2.90;;;1.75;;
13185;SDS011;6658;53.080;7.428;2022-08-19T12:17:22;1.60;;;1.50;;
13185;SDS011;6658;53.080;7.428;2022-08-19T12:19:48;2.20;;;1.95;;
13185;SDS011;6658;53.080;7.428;2022-08-19T12:22:14;2.30;;;2.10;;
13185;SDS011;6658;53.080;7.428;2022-08-19T12:24:39;2.45;;;2.25;;
13185;SDS011;6658;53.080;7.428;2022-08-19T12:27:05;2.67;;;2.47;;
13185;SDS011;6658;53.080;7.428;2022-08-19T12:29:31;2.40;;;2.20;;
13185;SDS011;6658;53.080;7.428;2022-08-19T12:31:58;3.03;;;1.98;;
13185;SDS011;6658;53.080;7.428;2022-08-19T12:34:26;2.35;;;2.15;;
13185;SDS011;6658;53.080;7.428;2022-08-19T12:36:58;2.60;;;2.22;;
13185;SDS011;6658;53.080;7.428;2022-08-19T12:39:26;2.63;;;2.20;;
13185;SDS011;6658;53.080;7.428;2022-08-19T12:41:52;2.80;;;2.60;;
13185;SDS011;6658;53.080;7.428;2022-08-19T12:44:17;2.90;;;2.17;;
13185;SDS011;6658;53.080;7.428;2022-08-19T12:46:43;2.28;;;2.17;;
13185;SDS011;6658;53.080;7.428;2022-08-19T12:49:09;3.13;;;2.33;;
13185;SDS011;6658;53.080;7.428;2022-08-19T12:51:35;2.45;;;2.25;;
13185;SDS011;6658;53.080;7.428;2022-08-19T12:54:01;2.58;;;2.38;;
13185;SDS011;6658;53.080;7.428;2022-08-19T12:56:27;2.63;;;2.05;;
13185;SDS011;6658;53.080;7.428;2022-08-19T12:58:53;1.85;;;1.75;;
13185;SDS011;6658;53.080;7.428;2022-08-19T13:01:19;2.40;;;2.25;;
13185;SDS011;6658;53.080;7.428;2022-08-19T13:03:45;4.63;;;2.92;;
13185;SDS011;6658;53.080;7.428;2022-08-19T13:06:11;3.63;;;2.25;;
13185;SDS011;6658;53.080;7.428;2022-08-19T13:08:37;3.22;;;2.60;;
13185;SDS011;6658;53.080;7.428;2022-08-19T13:11:08;2.55;;;2.35;;
13185;SDS011;6658;53.080;7.428;2022-08-19T13:13:36;2.50;;;2.30;;
13185;SDS011;6658;53.080;7.428;2022-08-19T13:16:05;2.15;;;2.05;;
13185;SDS011;6658;53.080;7.428;2022-08-19T13:18:32;2.25;;;2.05;;
13185;SDS011;6658;53.080;7.428;2022-08-19T13:21:01;2.67;;;2.47;;
13185;SDS011;6658;53.080;7.428;2022-08-19T13:23:32;4.50;;;2.13;;
13185;SDS011;6658;53.080;7.428;2022-08-19T13:25:59;2.97;;;2.40;;
13185;SDS011;6658;53.080;7.428;2022-08-19T13:28:27;2.55;;;2.13;;
13185;SDS011;6658;53.080;7.428;2022-08-19T13:31:20;2.70;;;2.50;;
13185;SDS011;6658;53.080;7.428;2022-08-19T13:34:06;2.80;;;2.30;;
13185;SDS011;6658;53.080;7.428;2022-08-19T13:36:33;2.78;;;1.92;;
13185;SDS011;6658;53.080;7.428;2022-08-19T13:39:00;3.03;;;2.15;;
13185;SDS011;6658;53.080;7.428;2022-08-19T13:41:26;2.30;;;2.10;;
13185;SDS011;6658;53.080;7.428;2022-08-19T13:43:52;3.63;;;2.40;;
13185;SDS011;6658;53.080;7.428;2022-08-19T13:46:19;3.38;;;2.50;;
13185;SDS011;6658;53.080;7.428;2022-08-19T13:48:45;2.63;;;2.42;;
13185;SDS011;6658;53.080;7.428;2022-08-19T13:51:13;2.80;;;2.60;;
13185;SDS011;6658;53.080;7.428;2022-08-19T13:53:41;3.17;;;2.67;;
13185;SDS011;6658;53.080;7.428;2022-08-19T13:56:09;2.92;;;2.50;;
13185;SDS011;6658;53.080;7.428;2022-08-19T13:58:37;4.05;;;2.33;;
13185;SDS011;6658;53.080;7.428;2022-08-19T14:01:04;2.47;;;2.20;;
13185;SDS011;6658;53.080;7.428;2022-08-19T14:03:31;5.22;;;2.22;;
13185;SDS011;6658;53.080;7.428;2022-08-19T14:05:57;4.00;;;2.60;;
13185;SDS011;6658;53.080;7.428;2022-08-19T14:08:23;4.05;;;2.63;;
13185;SDS011;6658;53.080;7.428;2022-08-19T14:10:49;4.35;;;2.78;;
13185;SDS011;6658;53.080;7.428;2022-08-19T14:13:16;3.33;;;3.03;;
13185;SDS011;6658;53.080;7.428;2022-08-19T14:15:45;4.22;;;2.70;;
13185;SDS011;6658;53.080;7.428;2022-08-19T14:18:12;4.53;;;3.13;;
13185;SDS011;6658;53.080;7.428;2022-08-19T14:20:39;3.72;;;2.78;;
13185;SDS011;6658;53.080;7.428;2022-08-19T14:23:04;3.65;;;2.85;;
13185;SDS011;6658;53.080;7.428;2022-08-19T14:25:30;3.00;;;2.60;;
13185;SDS011;6658;53.080;7.428;2022-08-19T14:27:57;3.05;;;2.85;;
13185;SDS011;6658;53.080;7.428;2022-08-19T14:30:28;3.45;;;3.13;;
13185;SDS011;6658;53.080;7.428;2022-08-19T14:32:56;2.63;;;2.42;;
13185;SDS011;6658;53.080;7.428;2022-08-19T14:35:27;3.15;;;2.95;;
13185;SDS011;6658;53.080;7.428;2022-08-19T14:37:54;3.40;;;3.10;;
13185;SDS011;6658;53.080;7.428;2022-08-19T14:40:21;4.10;;;3.10;;
13185;SDS011;6658;53.080;7.428;2022-08-19T14:42:52;4.70;;;3.30;;
13185;SDS011;6658;53.080;7.428;2022-08-19T14:45:26;3.20;;;3.00;;
13185;SDS011;6658;53.080;7.428;2022-08-19T14:47:53;4.00;;;3.67;;
13185;SDS011;6658;53.080;7.428;2022-08-19T14:50:19;3.85;;;3.58;;
13185;SDS011;6658;53.080;7.428;2022-08-19T14:52:45;4.07;;;3.65;;
13185;SDS011;6658;53.080;7.428;2022-08-19T14:55:17;4.00;;;3.60;;
13185;SDS011;6658;53.080;7.428;2022-08-19T14:57:43;4.78;;;4.10;;
13185;SDS011;6658;53.080;7.428;2022-08-19T15:00:10;4.32;;;3.92;;
13185;SDS011;6658;53.080;7.428;2022-08-19T15:02:38;5.65;;;3.55;;
13185;SDS011;6658;53.080;7.428;2022-08-19T15:05:04;5.40;;;4.95;;
13185;SDS011;6658;53.080;7.428;2022-08-19T15:07:30;4.80;;;4.47;;
13185;SDS011;6658;53.080;7.428;2022-08-19T15:09:56;4.40;;;4.00;;
13185;SDS011;6658;53.080;7.428;2022-08-19T15:12:22;5.00;;;4.50;;
13185;SDS011;6658;53.080;7.428;2022-08-19T15:14:47;7.35;;;5.40;;
13185;SDS011;6658;53.080;7.428;2022-08-19T15:17:15;5.63;;;5.10;;
13185;SDS011;6658;53.080;7.428;2022-08-19T15:19:42;5.80;;;4.93;;
13185;SDS011;6658;53.080;7.428;2022-08-19T15:22:08;5.45;;;4.75;;